Greycliff, MT (59033)

7:24 AM MDT on July 23, 2016 (GMT -0600)
S. Boulder-McKenzie Flats | | Change Station

Elev 4840 ft 45.75 °N, 109.96 °W | Updated 3 seconds ago

Clear
Clear
60.8 °F
Feels Like 60.8 °F
N
23.0
Wind Variable Wind from West
Gusts 23.0 mph

Today
High -- | Low -- °F
--% Chance of Precip.
Yesterday
High -- | Low -- °F
Precip. -- in
Pressure 29.97 in
Visibility 10.0 miles
Clouds Clear
Dew Point 40 °F
Humidity 47%
Rainfall 0.00 in
Snow Depth Not available.
5:52 AM 8:57 PM
Waning Gibbous, 85% visible
METAR KLVM 231253Z AUTO 30012KT 10SM CLR 16/03 A3012 RMK AO2 SLP148 T01610033
Pressure 29.97 in
Visibility 10.0 miles
Clouds Clear
Dew Point 40 °F
Humidity 47%
Rainfall 0.00 in
Snow Depth Not available.
5:52 AM 8:57 PM
Waning Gibbous, 85% visible
METAR KLVM 231253Z AUTO 30012KT 10SM CLR 16/03 A3012 RMK AO2 SLP148 T01610033

10-Day Weather Forecast

Almanac

Astronomy

Jul. 23, 2016 Rise Set
Actual Time
Civil Twilight
Nautical Twilight
Astronomical Twilight
Moon
Length of Visible Light
Length of Day
Tomorrow will be .
, % of the Moon is Illuminated

Today's Extremes

State Highs State Lows

Community

WunderPhotos

Upload Photos

1,926,818 photos uploaded!

WunderBlog® & News

Nearby

Air Quality

  Air Quality AQ Index Pollutant
Not available.

Snow Depth

Station Depth Elevation

Earthquake Activity

City Distance Mag. Time & Date
Minimum magnitude displayed is 2.5.

Coastal Water Temperatures

Place Temperature

Stations

Nearby Weather Stations

Station Location Temp. Windchill Dew Point Humidity Wind Precip. Elev Updated Type
                   

Watches & Warnings

There are currently no watches in effect.